createdAt,value
2024-05-09T00:00:45.487Z,19.00
2024-05-09T00:03:13.190Z,19.47
2024-05-09T00:05:44.452Z,19.79
2024-05-09T00:08:12.519Z,19.98
2024-05-09T00:10:40.825Z,20.13
2024-05-09T00:13:09.467Z,20.22
2024-05-09T00:15:37.188Z,20.08
2024-05-09T00:18:06.054Z,19.02
2024-05-09T00:20:38.708Z,18.65
2024-05-09T00:23:12.903Z,18.67
2024-05-09T00:25:44.359Z,18.37
2024-05-09T00:28:13.045Z,18.34
2024-05-09T00:30:40.553Z,18.31
2024-05-09T00:33:10.085Z,18.33
2024-05-09T00:35:38.758Z,18.08
2024-05-09T00:38:06.378Z,18.54
2024-05-09T00:40:41.857Z,18.78
2024-05-09T00:43:12.296Z,19.40
2024-05-09T00:45:40.371Z,19.61
2024-05-09T00:48:09.557Z,19.59
2024-05-09T00:50:41.326Z,19.87
2024-05-09T00:53:11.700Z,19.46
2024-05-09T00:55:40.091Z,18.96
2024-05-09T00:58:10.783Z,18.99
2024-05-09T01:00:40.407Z,18.76
2024-05-09T01:03:10.974Z,18.17
2024-05-09T01:05:40.451Z,18.24
2024-05-09T01:08:08.142Z,18.24
2024-05-09T01:10:36.643Z,18.71
2024-05-09T01:13:05.215Z,19.04
2024-05-09T01:15:33.674Z,19.29
2024-05-09T01:18:04.269Z,19.37
2024-05-09T01:20:40.131Z,19.81
2024-05-09T01:23:11.195Z,19.93
2024-05-09T01:25:38.590Z,19.98
2024-05-09T01:28:06.415Z,19.64
2024-05-09T01:30:36.021Z,18.95
2024-05-09T01:33:07.553Z,18.63
2024-05-09T01:35:36.642Z,18.20
2024-05-09T01:38:04.104Z,18.01
2024-05-09T01:43:01.678Z,18.26
2024-05-09T01:45:28.847Z,18.33
2024-05-09T01:47:56.131Z,18.36
2024-05-09T01:50:35.706Z,18.44
2024-05-09T01:53:06.340Z,18.64
2024-05-09T01:55:33.401Z,18.30
2024-05-09T01:58:00.503Z,17.79
2024-05-09T02:00:38.032Z,17.26
2024-05-09T02:03:11.520Z,17.09
2024-05-09T02:05:41.903Z,17.23
2024-05-09T02:08:17.313Z,17.36
2024-05-09T02:10:46.747Z,17.38
2024-05-09T02:13:14.689Z,17.22
2024-05-09T02:15:42.063Z,17.18
2024-05-09T02:18:10.296Z,17.40
2024-05-09T02:20:40.902Z,17.43
2024-05-09T02:23:08.960Z,17.67
2024-05-09T02:25:36.276Z,17.96
2024-05-09T02:28:03.537Z,17.92
2024-05-09T02:30:38.839Z,18.40
2024-05-09T02:33:10.367Z,18.47
2024-05-09T02:35:39.450Z,17.89
2024-05-09T02:38:06.653Z,17.70
2024-05-09T02:40:37.699Z,17.57
2024-05-09T02:43:08.042Z,17.47
2024-05-09T02:45:35.835Z,18.02
2024-05-09T02:48:03.213Z,18.06
2024-05-09T02:50:37.522Z,18.67
2024-05-09T02:53:11.162Z,18.57
2024-05-09T02:55:39.180Z,17.96
2024-05-09T02:58:09.980Z,17.95
2024-05-09T03:00:40.773Z,18.57
2024-05-09T03:03:13.222Z,18.26
2024-05-09T03:05:45.710Z,18.12
2024-05-09T03:08:13.390Z,17.91
2024-05-09T03:10:40.596Z,17.65
2024-05-09T03:13:15.394Z,17.84
2024-05-09T03:15:44.602Z,17.92
2024-05-09T03:18:12.723Z,17.99
2024-05-09T03:20:40.543Z,18.17
2024-05-09T03:23:09.354Z,17.98
2024-05-09T03:25:37.871Z,17.92
2024-05-09T03:28:05.403Z,17.92
2024-05-09T03:30:40.029Z,17.84
2024-05-09T03:33:20.766Z,18.60
2024-05-09T03:35:49.431Z,18.51
2024-05-09T03:38:17.147Z,18.41
2024-05-09T03:40:50.206Z,18.53
2024-05-09T03:43:18.657Z,18.71
2024-05-09T03:45:47.881Z,19.20
2024-05-09T03:48:15.342Z,19.39
2024-05-09T03:50:42.814Z,18.89
2024-05-09T03:53:11.685Z,18.86
2024-05-09T03:55:39.230Z,18.24
2024-05-09T03:58:08.283Z,17.84
2024-05-09T04:00:39.215Z,17.86
2024-05-09T04:03:10.160Z,17.73
2024-05-09T04:05:44.617Z,17.75
2024-05-09T04:08:13.203Z,17.67
2024-05-09T04:10:41.163Z,17.64
2024-05-09T04:13:09.586Z,18.56
2024-05-09T04:15:36.897Z,18.01
2024-05-09T04:18:04.294Z,17.86
2024-05-09T04:20:38.201Z,18.31
2024-05-09T04:23:11.382Z,18.63
2024-05-09T04:25:40.999Z,18.10
2024-05-09T04:28:08.191Z,18.43
2024-05-09T04:30:39.246Z,18.96
2024-05-09T04:33:11.326Z,18.75
2024-05-09T04:35:42.738Z,18.48
2024-05-09T04:38:10.605Z,18.01
2024-05-09T04:40:38.179Z,17.86
2024-05-09T04:43:06.979Z,17.75
2024-05-09T04:45:34.834Z,17.64
2024-05-09T04:48:02.509Z,17.53
2024-05-09T04:50:36.555Z,17.82
2024-05-09T04:53:10.844Z,18.26
2024-05-09T04:55:40.029Z,18.91
2024-05-09T04:58:09.129Z,18.56
2024-05-09T05:00:38.880Z,19.22
2024-05-09T05:03:14.558Z,18.85
2024-05-09T05:05:44.863Z,18.74
2024-05-09T05:08:17.742Z,18.41
2024-05-09T05:10:46.615Z,18.89
2024-05-09T05:13:20.410Z,18.75
2024-05-09T05:15:58.758Z,18.24
2024-05-09T05:18:27.959Z,18.08
2024-05-09T05:20:56.661Z,18.79
2024-05-09T05:23:24.663Z,19.29
2024-05-09T05:25:54.849Z,19.53
2024-05-09T05:28:22.528Z,19.46
2024-05-09T05:30:50.069Z,19.75
2024-05-09T05:33:23.042Z,19.85
2024-05-09T05:35:50.795Z,19.87
2024-05-09T05:38:18.152Z,19.95
2024-05-09T05:40:45.484Z,19.98
2024-05-09T05:43:19.506Z,20.01
2024-05-09T05:45:47.120Z,19.98
2024-05-09T05:48:17.123Z,19.96
2024-05-09T05:50:45.203Z,20.01
2024-05-09T05:53:12.410Z,20.06
2024-05-09T05:55:40.862Z,20.13
2024-05-09T05:58:12.061Z,19.93
2024-05-09T06:00:42.225Z,20.01
2024-05-09T06:03:12.310Z,19.79
2024-05-09T06:05:40.793Z,19.90
2024-05-09T06:08:09.088Z,19.99
2024-05-09T06:10:39.529Z,20.01
2024-05-09T06:13:13.119Z,20.05
2024-05-09T06:15:41.534Z,20.09
2024-05-09T06:18:10.962Z,20.05
2024-05-09T06:20:43.020Z,20.02
2024-05-09T06:23:11.316Z,19.98
2024-05-09T06:25:38.852Z,19.99
2024-05-09T06:28:06.569Z,19.79
2024-05-09T06:30:40.109Z,19.79
2024-05-09T06:33:12.118Z,19.87
2024-05-09T06:35:41.672Z,19.89
2024-05-09T06:38:09.704Z,19.93
2024-05-09T06:40:41.914Z,19.98
2024-05-09T06:43:15.061Z,19.93
2024-05-09T06:45:43.646Z,19.67
2024-05-09T06:48:11.899Z,19.74
2024-05-09T06:50:41.127Z,19.74
2024-05-09T06:53:08.745Z,19.83
2024-05-09T06:55:37.270Z,19.29
2024-05-09T06:58:06.219Z,19.57
2024-05-09T07:00:39.067Z,19.54
2024-05-09T07:03:15.662Z,19.57
2024-05-09T07:05:46.676Z,19.54
2024-05-09T07:08:14.832Z,19.64
2024-05-09T07:10:42.637Z,19.34
2024-05-09T07:13:10.530Z,19.47
2024-05-09T07:15:38.242Z,19.50
2024-05-09T07:18:18.606Z,19.53
2024-05-09T07:20:49.317Z,19.61
2024-05-09T07:23:18.146Z,19.58
2024-05-09T07:25:45.967Z,19.61
2024-05-09T07:28:16.162Z,19.64
2024-05-09T07:30:44.294Z,19.67
2024-05-09T07:33:21.505Z,19.71
2024-05-09T07:35:51.027Z,19.71
2024-05-09T07:38:19.797Z,19.74
2024-05-09T07:40:47.208Z,19.75
2024-05-09T07:43:15.081Z,19.69
2024-05-09T07:45:51.393Z,19.67
2024-05-09T07:52:38.939Z,19.57
2024-05-09T07:53:47.400Z,19.36
2024-05-09T07:56:19.853Z,19.39
2024-05-09T07:58:50.783Z,19.41
2024-05-09T08:01:18.332Z,19.44
2024-05-09T08:03:46.523Z,19.55
2024-05-09T08:06:14.091Z,19.50
2024-05-09T08:08:41.260Z,19.59
2024-05-09T08:11:08.575Z,19.68
2024-05-09T08:13:35.697Z,19.51
2024-05-09T08:16:03.100Z,19.62
2024-05-09T08:18:30.796Z,19.71
2024-05-09T08:20:58.559Z,19.67
2024-05-09T08:23:25.795Z,19.74
2024-05-09T08:25:55.733Z,19.61
2024-05-09T08:28:23.307Z,19.74
2024-05-09T08:30:50.853Z,19.82
2024-05-09T08:33:18.232Z,19.72
2024-05-09T08:35:45.549Z,19.90
2024-05-09T08:38:12.711Z,19.95
2024-05-09T08:40:40.073Z,19.82
2024-05-09T08:43:11.139Z,19.62
2024-05-09T08:45:44.664Z,19.82
2024-05-09T08:48:15.659Z,19.95
2024-05-09T08:50:45.006Z,20.01
2024-05-09T08:53:15.042Z,19.86
2024-05-09T08:55:44.057Z,19.86
2024-05-09T08:58:21.019Z,19.87
2024-05-09T09:00:49.474Z,19.90
2024-05-09T09:03:19.931Z,19.69
2024-05-09T09:06:02.662Z,19.71
2024-05-09T09:08:30.529Z,19.62
2024-05-09T09:10:59.045Z,19.65
2024-05-09T09:13:26.945Z,19.72
2024-05-09T09:15:59.275Z,19.85
2024-05-09T09:18:27.902Z,19.99
2024-05-09T09:20:55.383Z,20.02
2024-05-09T09:23:22.957Z,19.98
2024-05-09T09:25:50.330Z,19.89
2024-05-09T09:28:17.728Z,19.98
2024-05-09T09:30:46.189Z,20.02
2024-05-09T09:33:13.791Z,19.95
2024-05-09T09:35:42.606Z,20.01
2024-05-09T09:38:10.849Z,20.12
2024-05-09T09:40:46.792Z,20.14
2024-05-09T09:43:22.514Z,20.30
2024-05-09T09:45:52.994Z,20.37
2024-05-09T09:48:22.648Z,20.36
2024-05-09T09:50:52.340Z,19.83
2024-05-09T09:53:20.180Z,20.34
2024-05-09T09:55:49.278Z,20.40
2024-05-09T09:58:18.147Z,20.30
2024-05-09T10:00:45.955Z,20.61
2024-05-09T10:03:13.503Z,20.58
2024-05-09T10:05:43.905Z,20.69
2024-05-09T10:08:14.354Z,20.78
2024-05-09T10:10:46.852Z,20.72
2024-05-09T10:13:14.459Z,20.82
2024-05-09T10:15:46.539Z,20.89
2024-05-09T10:18:15.462Z,20.77
2024-05-09T10:20:44.676Z,20.84
2024-05-09T10:23:27.052Z,20.89
2024-05-09T10:26:02.107Z,20.84
2024-05-09T10:28:33.195Z,20.84
2024-05-09T10:31:09.108Z,20.85
2024-05-09T10:33:50.994Z,20.89
2024-05-09T10:36:26.404Z,21.31
2024-05-09T10:38:54.760Z,21.27
2024-05-09T10:41:23.628Z,21.49
2024-05-09T10:43:52.339Z,21.13
2024-05-09T10:46:20.009Z,21.68
2024-05-09T10:48:49.874Z,21.55
2024-05-09T10:51:19.949Z,21.34
2024-05-09T10:53:48.789Z,21.77
2024-05-09T10:56:17.226Z,21.83
2024-05-09T10:58:44.901Z,21.83
2024-05-09T11:01:14.019Z,21.94
2024-05-09T11:03:42.263Z,21.83
2024-05-09T11:06:11.549Z,21.89
2024-05-09T11:08:39.767Z,21.79
2024-05-09T11:11:08.984Z,21.67
2024-05-09T11:13:41.079Z,21.69
2024-05-09T11:16:21.065Z,21.72
2024-05-09T11:18:59.068Z,21.67
2024-05-09T11:22:17.876Z,21.74
2024-05-09T11:24:45.453Z,21.75
2024-05-09T11:27:13.006Z,21.61
2024-05-09T11:29:41.613Z,21.57
2024-05-09T11:32:12.169Z,21.49
2024-05-09T11:34:42.282Z,21.49
2024-05-09T11:37:11.408Z,21.55
2024-05-09T11:39:38.988Z,21.61
2024-05-09T11:42:06.931Z,21.53
2024-05-09T11:44:34.435Z,21.55
2024-05-09T11:47:03.464Z,21.53
2024-05-09T11:49:33.339Z,21.27
2024-05-09T11:52:02.245Z,21.22
2024-05-09T11:54:29.990Z,21.43
2024-05-09T11:56:57.232Z,21.49
2024-05-09T11:59:24.600Z,21.58
2024-05-09T12:01:51.954Z,21.67
2024-05-09T12:04:19.722Z,21.78
2024-05-09T12:06:47.726Z,21.79
2024-05-09T12:09:15.227Z,21.92
2024-05-09T12:11:43.286Z,21.22
2024-05-09T12:14:10.552Z,21.67
2024-05-09T12:16:38.274Z,21.27
2024-05-09T12:19:06.082Z,21.71
2024-05-09T12:21:34.390Z,21.00
2024-05-09T12:24:01.646Z,20.44
2024-05-09T12:26:28.959Z,20.55
2024-05-09T12:28:56.210Z,20.40
2024-05-09T12:31:23.722Z,20.14
2024-05-09T12:33:51.734Z,20.13
2024-05-09T12:36:19.033Z,19.64
2024-05-09T12:38:47.058Z,19.72
2024-05-09T12:41:16.677Z,19.65
2024-05-09T12:44:09.761Z,19.93
2024-05-09T12:46:51.976Z,20.01
2024-05-09T12:49:33.600Z,20.03
2024-05-09T12:52:02.853Z,19.95
2024-05-09T12:54:46.744Z,20.10
2024-05-09T12:57:15.225Z,20.82
2024-05-09T12:59:43.974Z,20.98
2024-05-09T13:02:13.383Z,20.39
2024-05-09T13:04:44.820Z,20.37
2024-05-09T13:07:13.629Z,19.76
2024-05-09T13:09:41.346Z,19.40
2024-05-09T13:12:08.730Z,19.31
2024-05-09T13:14:36.207Z,19.54
2024-05-09T13:17:03.581Z,20.30
2024-05-09T13:19:30.851Z,20.16
2024-05-09T13:21:58.162Z,20.22
2024-05-09T13:24:25.385Z,20.47
2024-05-09T13:26:52.641Z,20.34
2024-05-09T13:29:19.979Z,20.54
2024-05-09T13:31:47.588Z,20.72
2024-05-09T13:34:14.928Z,20.71
2024-05-09T13:36:42.227Z,20.31
2024-05-09T13:39:09.651Z,20.22
2024-05-09T13:41:36.928Z,19.93
2024-05-09T13:44:04.179Z,20.33
2024-05-09T13:46:32.364Z,20.65
2024-05-09T13:48:59.578Z,20.99
2024-05-09T13:51:26.926Z,20.86
2024-05-09T13:53:54.060Z,21.03
2024-05-09T13:56:21.503Z,21.17
2024-05-09T13:58:50.728Z,20.81
2024-05-09T14:01:18.089Z,20.98
2024-05-09T14:03:45.482Z,21.17
2024-05-09T14:06:13.351Z,21.09
2024-05-09T14:08:40.733Z,21.13
2024-05-09T14:11:08.015Z,21.19
2024-05-09T14:13:35.226Z,21.17
2024-05-09T14:16:02.617Z,20.84
2024-05-09T14:18:30.394Z,20.41
2024-05-09T14:20:57.636Z,20.02
2024-05-09T14:23:24.911Z,20.30
2024-05-09T14:25:55.165Z,20.17
2024-05-09T14:28:23.505Z,19.83
2024-05-09T14:30:51.601Z,20.10
2024-05-09T14:33:23.756Z,19.99
2024-05-09T14:35:50.995Z,20.17
2024-05-09T14:38:18.392Z,20.34
2024-05-09T14:40:45.612Z,20.03
2024-05-09T14:43:14.622Z,19.85
2024-05-09T14:45:43.140Z,19.62
2024-05-09T14:48:11.949Z,19.89
2024-05-09T14:50:40.698Z,19.51
2024-05-09T14:53:10.283Z,19.33
2024-05-09T14:55:40.482Z,19.37
2024-05-09T14:58:10.468Z,19.50
2024-05-09T15:00:45.903Z,19.48
2024-05-09T15:03:21.023Z,19.81
2024-05-09T15:05:49.706Z,19.64
2024-05-09T15:08:18.378Z,19.55
2024-05-09T15:10:46.276Z,19.39
2024-05-09T15:13:16.472Z,19.33
2024-05-09T15:15:44.832Z,19.58
2024-05-09T15:18:13.318Z,19.29
2024-05-09T15:20:41.145Z,19.29
2024-05-09T15:23:08.596Z,19.14
2024-05-09T15:25:36.740Z,19.75
2024-05-09T15:28:08.084Z,19.81
2024-05-09T15:30:36.823Z,20.05
2024-05-09T15:33:05.329Z,19.89
2024-05-09T15:35:34.268Z,19.61
2024-05-09T15:38:03.808Z,20.17
2024-05-09T15:40:38.390Z,19.07
2024-05-09T15:43:10.426Z,19.03
2024-05-09T15:45:41.045Z,19.54
2024-05-09T15:48:09.461Z,19.69
2024-05-09T15:50:40.838Z,19.40
2024-05-09T15:53:12.074Z,18.67
2024-05-09T15:55:40.195Z,18.36
2024-05-09T15:58:08.263Z,18.57
2024-05-09T16:00:40.066Z,18.64
2024-05-09T16:03:12.192Z,18.44
2024-05-09T16:05:41.847Z,18.53
2024-05-09T16:08:09.741Z,18.48
2024-05-09T16:10:43.537Z,18.09
2024-05-09T16:13:12.480Z,18.61
2024-05-09T16:15:39.983Z,18.71
2024-05-09T16:18:15.609Z,18.93
2024-05-09T16:20:51.848Z,19.10
2024-05-09T16:23:19.095Z,19.51
2024-05-09T16:25:48.506Z,18.65
2024-05-09T16:28:16.783Z,18.56
2024-05-09T16:30:44.166Z,18.51
2024-05-09T16:33:14.286Z,19.19
2024-05-09T16:35:41.610Z,19.39
2024-05-09T16:38:09.004Z,19.72
2024-05-09T16:40:40.139Z,18.81
2024-05-09T16:43:11.047Z,19.12
2024-05-09T16:45:40.485Z,18.54
2024-05-09T16:48:08.694Z,19.19
2024-05-09T16:50:36.838Z,18.65
2024-05-09T16:53:06.177Z,18.92
2024-05-09T16:55:34.629Z,18.92
2024-05-09T16:58:02.737Z,18.58
2024-05-09T17:00:38.852Z,18.58
2024-05-09T17:03:11.931Z,18.37
2024-05-09T17:05:40.531Z,18.54
2024-05-09T17:08:08.735Z,18.43
2024-05-09T17:10:36.903Z,18.81
2024-05-09T17:13:06.619Z,18.61
2024-05-09T17:15:44.307Z,18.38
2024-05-09T17:18:15.427Z,19.10
2024-05-09T17:20:48.259Z,17.82
2024-05-09T17:23:17.319Z,17.58
2024-05-09T17:25:45.056Z,17.67
2024-05-09T17:28:13.069Z,17.47
2024-05-09T17:30:42.290Z,17.65
2024-05-09T17:33:12.285Z,17.60
2024-05-09T17:35:40.630Z,17.53
2024-05-09T17:38:08.980Z,17.31
2024-05-09T17:40:38.563Z,17.37
2024-05-09T17:43:09.404Z,17.54
2024-05-09T17:45:39.470Z,17.57
2024-05-09T17:48:09.841Z,17.57
2024-05-09T17:50:38.559Z,17.61
2024-05-09T17:53:06.567Z,17.58
2024-05-09T17:55:34.303Z,17.31
2024-05-09T17:58:01.976Z,17.36
2024-05-09T18:00:37.386Z,17.19
2024-05-09T18:03:11.066Z,17.19
2024-05-09T18:05:39.620Z,17.10
2024-05-09T18:08:08.536Z,16.88
2024-05-09T18:10:39.014Z,16.87
2024-05-09T18:13:11.883Z,17.08
2024-05-09T18:15:40.631Z,17.29
2024-05-09T18:18:09.990Z,16.88
2024-05-09T18:20:44.563Z,17.08
2024-05-09T18:23:17.028Z,17.18
2024-05-09T18:25:45.935Z,17.19
2024-05-09T18:28:14.058Z,17.09
2024-05-09T18:30:42.028Z,17.05
2024-05-09T18:33:11.542Z,17.26
2024-05-09T18:35:39.472Z,16.94
2024-05-09T18:38:06.713Z,16.74
2024-05-09T18:40:36.829Z,16.60
2024-05-09T18:43:08.121Z,16.63
2024-05-09T18:45:40.104Z,16.71
2024-05-09T18:48:09.404Z,16.79
2024-05-09T18:50:40.587Z,16.51
2024-05-09T18:53:11.169Z,16.50
2024-05-09T18:55:39.755Z,17.03
2024-05-09T18:58:07.294Z,17.05
2024-05-09T19:00:37.951Z,17.40
2024-05-09T19:03:12.758Z,16.74
2024-05-09T19:05:43.707Z,16.75
2024-05-09T19:08:13.689Z,16.57
2024-05-09T19:10:43.363Z,16.79
2024-05-09T19:13:13.146Z,16.57
2024-05-09T19:15:42.770Z,16.85
2024-05-09T19:18:13.378Z,16.25
2024-05-09T19:20:42.032Z,16.15
2024-05-09T19:23:12.066Z,16.04
2024-05-09T19:25:42.289Z,15.99
2024-05-09T19:28:10.918Z,15.75
2024-05-09T19:30:41.593Z,15.88
2024-05-09T19:33:14.185Z,15.85
2024-05-09T19:35:43.237Z,15.83
2024-05-09T19:38:11.497Z,15.83
2024-05-09T19:40:38.891Z,15.81
2024-05-09T19:43:07.137Z,15.77
2024-05-09T19:45:35.768Z,15.71
2024-05-09T19:48:04.998Z,15.78
2024-05-09T19:50:40.910Z,15.81
2024-05-09T19:53:12.253Z,15.68
2024-05-09T19:55:43.226Z,16.10
2024-05-09T19:58:11.251Z,15.98
2024-05-09T20:00:41.785Z,16.33
2024-05-09T20:03:12.877Z,16.00
2024-05-09T20:05:42.801Z,16.47
2024-05-09T20:08:10.173Z,16.27
2024-05-09T20:10:38.372Z,16.19
2024-05-09T20:13:07.783Z,16.13
2024-05-09T20:15:37.008Z,16.68
2024-05-09T20:18:05.329Z,16.26
2024-05-09T20:20:39.318Z,17.05
2024-05-09T20:23:13.203Z,17.34
2024-05-09T20:25:41.066Z,17.18
2024-05-09T20:28:08.639Z,16.95
2024-05-09T20:30:36.629Z,16.76
2024-05-09T20:33:07.512Z,16.16
2024-05-09T20:35:36.508Z,16.34
2024-05-09T20:38:04.830Z,16.10
2024-05-09T20:40:37.144Z,16.06
2024-05-09T20:43:10.565Z,15.96
2024-05-09T20:45:38.899Z,16.27
2024-05-09T20:48:07.838Z,16.34
2024-05-09T20:50:39.744Z,17.15
2024-05-09T20:53:11.279Z,17.46
2024-05-09T20:55:39.530Z,17.58
2024-05-09T20:58:07.007Z,17.75
2024-05-09T21:00:39.682Z,17.78
2024-05-09T21:03:11.290Z,17.71
2024-05-09T21:05:39.466Z,17.82
2024-05-09T21:08:07.584Z,17.84
2024-05-09T21:10:36.356Z,17.99
2024-05-09T21:13:04.640Z,17.68
2024-05-09T21:15:32.382Z,17.65
2024-05-09T21:17:59.963Z,17.54
2024-05-09T21:20:31.461Z,17.63
2024-05-09T21:23:01.582Z,17.58
2024-05-09T21:25:29.762Z,17.63
2024-05-09T21:27:58.006Z,17.70
2024-05-09T21:30:36.893Z,17.54
2024-05-09T21:33:10.396Z,17.57
2024-05-09T21:35:41.279Z,17.63
2024-05-09T21:38:08.472Z,17.50
2024-05-09T21:40:36.919Z,17.65
2024-05-09T21:43:07.629Z,17.50
2024-05-09T21:45:35.898Z,17.50
2024-05-09T21:48:06.946Z,17.71
2024-05-09T21:50:40.356Z,17.79
2024-05-09T21:53:13.365Z,17.44
2024-05-09T21:55:44.906Z,17.75
2024-05-09T21:58:14.335Z,17.92
2024-05-09T22:00:46.068Z,17.96
2024-05-09T22:03:15.684Z,18.02
2024-05-09T22:05:45.812Z,17.77
2024-05-09T22:08:15.207Z,17.68
2024-05-09T22:10:44.863Z,17.96
2024-05-09T22:13:13.432Z,17.88
2024-05-09T22:15:41.593Z,17.81
2024-05-09T22:18:11.473Z,17.85
2024-05-09T22:20:46.921Z,17.93
2024-05-09T22:23:15.223Z,18.02
2024-05-09T22:25:42.613Z,17.64
2024-05-09T22:28:10.955Z,17.85
2024-05-09T22:30:39.959Z,17.99
2024-05-09T22:33:11.590Z,18.02
2024-05-09T22:35:41.532Z,18.13
2024-05-09T22:38:10.590Z,18.19
2024-05-09T22:40:47.310Z,18.09
2024-05-09T22:43:21.534Z,18.05
2024-05-09T22:45:51.876Z,17.96
2024-05-09T22:48:22.029Z,18.08
2024-05-09T22:50:50.629Z,18.05
2024-05-09T22:53:18.699Z,17.99
2024-05-09T22:55:45.865Z,17.92
2024-05-09T22:58:13.107Z,17.81
2024-05-09T23:00:42.005Z,17.95
2024-05-09T23:03:13.354Z,17.85
2024-05-09T23:05:42.466Z,17.78
2024-05-09T23:08:11.425Z,17.70
2024-05-09T23:10:38.859Z,17.61
2024-05-09T23:13:07.731Z,17.58
2024-05-09T23:15:40.538Z,17.67
2024-05-09T23:18:09.955Z,17.68
2024-05-09T23:20:39.761Z,17.64
2024-05-09T23:23:10.763Z,17.73
2024-05-09T23:25:41.795Z,17.77
2024-05-09T23:28:10.340Z,17.70
2024-05-09T23:30:40.229Z,17.73
2024-05-09T23:33:11.487Z,17.77
2024-05-09T23:35:41.006Z,17.74
2024-05-09T23:38:08.389Z,17.71
2024-05-09T23:40:39.584Z,17.73
2024-05-09T23:43:13.634Z,17.70
2024-05-09T23:45:42.518Z,17.67
2024-05-09T23:48:10.315Z,17.70
2024-05-09T23:50:39.411Z,17.60
2024-05-09T23:53:09.381Z,17.70
2024-05-09T23:55:37.574Z,17.71
2024-05-09T23:58:05.450Z,17.61
